sensor_id;sensor_type;location;lat;lon;timestamp;temperature;humidity
4324;DHT22;2175;51.018;6.994;2023-07-02T00:01:18;17.50;99.90
4324;DHT22;2175;51.018;6.994;2023-07-02T00:03:44;17.50;99.90
4324;DHT22;2175;51.018;6.994;2023-07-02T00:06:09;17.50;99.90
4324;DHT22;2175;51.018;6.994;2023-07-02T00:08:35;17.60;99.90
4324;DHT22;2175;51.018;6.994;2023-07-02T00:11:01;17.50;99.90
4324;DHT22;2175;51.018;6.994;2023-07-02T00:13:26;17.50;99.90
4324;DHT22;2175;51.018;6.994;2023-07-02T00:15:52;17.50;99.90
4324;DHT22;2175;51.018;6.994;2023-07-02T00:18:17;17.50;99.90
4324;DHT22;2175;51.018;6.994;2023-07-02T00:20:43;17.50;99.90
4324;DHT22;2175;51.018;6.994;2023-07-02T00:23:09;17.50;99.90
4324;DHT22;2175;51.018;6.994;2023-07-02T00:25:36;17.50;99.90
4324;DHT22;2175;51.018;6.994;2023-07-02T00:28:02;17.50;99.90
4324;DHT22;2175;51.018;6.994;2023-07-02T00:30:28;17.50;99.90
4324;DHT22;2175;51.018;6.994;2023-07-02T00:32:53;17.50;99.90
4324;DHT22;2175;51.018;6.994;2023-07-02T00:35:19;17.50;99.90
4324;DHT22;2175;51.018;6.994;2023-07-02T00:37:45;17.50;99.90
4324;DHT22;2175;51.018;6.994;2023-07-02T00:40:11;17.50;99.90
4324;DHT22;2175;51.018;6.994;2023-07-02T00:42:36;17.50;99.90
4324;DHT22;2175;51.018;6.994;2023-07-02T00:45:02;17.50;99.90
4324;DHT22;2175;51.018;6.994;2023-07-02T00:47:35;17.50;99.90
4324;DHT22;2175;51.018;6.994;2023-07-02T00:50:01;17.50;99.90
4324;DHT22;2175;51.018;6.994;2023-07-02T00:52:27;17.50;99.90
4324;DHT22;2175;51.018;6.994;2023-07-02T00:54:53;17.50;99.90
4324;DHT22;2175;51.018;6.994;2023-07-02T00:57:19;17.60;99.90
4324;DHT22;2175;51.018;6.994;2023-07-02T00:59:45;17.50;99.90
4324;DHT22;2175;51.018;6.994;2023-07-02T01:02:11;17.50;99.90
4324;DHT22;2175;51.018;6.994;2023-07-02T01:04:39;17.50;99.90
4324;DHT22;2175;51.018;6.994;2023-07-02T01:07:05;17.50;99.90
4324;DHT22;2175;51.018;6.994;2023-07-02T01:09:35;17.50;99.90
4324;DHT22;2175;51.018;6.994;2023-07-02T01:12:03;17.60;99.90
4324;DHT22;2175;51.018;6.994;2023-07-02T01:14:39;17.50;99.90
4324;DHT22;2175;51.018;6.994;2023-07-02T01:17:06;17.50;99.90
4324;DHT22;2175;51.018;6.994;2023-07-02T01:19:49;17.50;99.90
4324;DHT22;2175;51.018;6.994;2023-07-02T01:22:17;17.50;99.90
4324;DHT22;2175;51.018;6.994;2023-07-02T01:24:44;17.50;99.90
4324;DHT22;2175;51.018;6.994;2023-07-02T01:27:11;17.50;99.90
4324;DHT22;2175;51.018;6.994;2023-07-02T01:29:37;17.50;99.90
4324;DHT22;2175;51.018;6.994;2023-07-02T01:32:03;17.50;99.90
4324;DHT22;2175;51.018;6.994;2023-07-02T01:34:29;17.50;99.90
4324;DHT22;2175;51.018;6.994;2023-07-02T01:36:54;17.50;99.90
4324;DHT22;2175;51.018;6.994;2023-07-02T01:39:20;17.50;99.90
4324;DHT22;2175;51.018;6.994;2023-07-02T01:41:50;17.40;99.90
4324;DHT22;2175;51.018;6.994;2023-07-02T01:44:16;17.40;99.90
4324;DHT22;2175;51.018;6.994;2023-07-02T01:46:41;17.40;99.90
4324;DHT22;2175;51.018;6.994;2023-07-02T01:49:07;17.40;99.90
4324;DHT22;2175;51.018;6.994;2023-07-02T01:51:33;17.40;99.90
4324;DHT22;2175;51.018;6.994;2023-07-02T01:53:59;17.40;99.90
4324;DHT22;2175;51.018;6.994;2023-07-02T01:56:26;17.30;99.90
4324;DHT22;2175;51.018;6.994;2023-07-02T01:58:52;17.40;99.90
4324;DHT22;2175;51.018;6.994;2023-07-02T02:01:18;17.40;99.90
4324;DHT22;2175;51.018;6.994;2023-07-02T02:03:43;17.40;99.90
4324;DHT22;2175;51.018;6.994;2023-07-02T02:06:09;17.40;99.90
4324;DHT22;2175;51.018;6.994;2023-07-02T02:08:34;17.40;99.90
4324;DHT22;2175;51.018;6.994;2023-07-02T02:11:00;17.30;99.90
4324;DHT22;2175;51.018;6.994;2023-07-02T02:13:26;17.40;99.90
4324;DHT22;2175;51.018;6.994;2023-07-02T02:15:53;17.30;99.90
4324;DHT22;2175;51.018;6.994;2023-07-02T02:18:19;17.30;99.90
4324;DHT22;2175;51.018;6.994;2023-07-02T02:20:44;17.30;99.90
4324;DHT22;2175;51.018;6.994;2023-07-02T02:23:10;17.20;99.90
4324;DHT22;2175;51.018;6.994;2023-07-02T02:25:36;17.30;99.90
4324;DHT22;2175;51.018;6.994;2023-07-02T02:28:02;17.30;99.90
4324;DHT22;2175;51.018;6.994;2023-07-02T02:30:28;17.30;99.90
4324;DHT22;2175;51.018;6.994;2023-07-02T02:32:53;17.30;99.90
4324;DHT22;2175;51.018;6.994;2023-07-02T02:35:19;17.20;99.90
4324;DHT22;2175;51.018;6.994;2023-07-02T02:37:44;17.20;99.90
4324;DHT22;2175;51.018;6.994;2023-07-02T02:40:10;17.10;99.90
4324;DHT22;2175;51.018;6.994;2023-07-02T02:42:36;17.10;99.90
4324;DHT22;2175;51.018;6.994;2023-07-02T02:45:03;17.00;99.90
4324;DHT22;2175;51.018;6.994;2023-07-02T02:47:28;17.00;99.90
4324;DHT22;2175;51.018;6.994;2023-07-02T02:49:54;16.90;99.90
4324;DHT22;2175;51.018;6.994;2023-07-02T02:52:20;17.00;99.90
4324;DHT22;2175;51.018;6.994;2023-07-02T02:54:46;17.00;99.90
4324;DHT22;2175;51.018;6.994;2023-07-02T02:57:11;17.00;99.90
4324;DHT22;2175;51.018;6.994;2023-07-02T02:59:37;17.00;99.90
4324;DHT22;2175;51.018;6.994;2023-07-02T03:02:03;17.00;99.90
4324;DHT22;2175;51.018;6.994;2023-07-02T03:04:29;17.00;99.90
4324;DHT22;2175;51.018;6.994;2023-07-02T03:06:55;17.00;99.90
4324;DHT22;2175;51.018;6.994;2023-07-02T03:09:21;16.90;99.90
4324;DHT22;2175;51.018;6.994;2023-07-02T03:11:47;17.00;99.90
4324;DHT22;2175;51.018;6.994;2023-07-02T03:14:13;16.80;99.90
4324;DHT22;2175;51.018;6.994;2023-07-02T03:16:41;16.80;99.90
4324;DHT22;2175;51.018;6.994;2023-07-02T03:19:06;16.80;99.90
4324;DHT22;2175;51.018;6.994;2023-07-02T03:21:32;16.80;99.90
4324;DHT22;2175;51.018;6.994;2023-07-02T03:23:58;16.90;99.90
4324;DHT22;2175;51.018;6.994;2023-07-02T03:26:23;16.80;99.90
4324;DHT22;2175;51.018;6.994;2023-07-02T03:28:49;16.80;99.90
4324;DHT22;2175;51.018;6.994;2023-07-02T03:31:15;16.90;99.90
4324;DHT22;2175;51.018;6.994;2023-07-02T03:33:40;16.90;99.90
4324;DHT22;2175;51.018;6.994;2023-07-02T03:36:06;16.90;99.90
4324;DHT22;2175;51.018;6.994;2023-07-02T03:38:32;16.80;99.90
4324;DHT22;2175;51.018;6.994;2023-07-02T03:40:58;16.80;99.90
4324;DHT22;2175;51.018;6.994;2023-07-02T03:43:23;16.90;99.90
4324;DHT22;2175;51.018;6.994;2023-07-02T03:45:52;16.90;99.90
4324;DHT22;2175;51.018;6.994;2023-07-02T03:48:17;16.80;99.90
4324;DHT22;2175;51.018;6.994;2023-07-02T03:50:43;16.90;99.90
4324;DHT22;2175;51.018;6.994;2023-07-02T03:53:09;16.90;99.90
4324;DHT22;2175;51.018;6.994;2023-07-02T03:55:35;16.80;99.90
4324;DHT22;2175;51.018;6.994;2023-07-02T03:58:01;16.90;99.90
4324;DHT22;2175;51.018;6.994;2023-07-02T04:00:26;16.80;99.90
4324;DHT22;2175;51.018;6.994;2023-07-02T04:02:52;16.90;99.90
4324;DHT22;2175;51.018;6.994;2023-07-02T04:05:17;16.80;99.90
4324;DHT22;2175;51.018;6.994;2023-07-02T04:07:43;16.80;99.90
4324;DHT22;2175;51.018;6.994;2023-07-02T04:10:09;16.90;99.90
4324;DHT22;2175;51.018;6.994;2023-07-02T04:12:34;16.90;99.90
4324;DHT22;2175;51.018;6.994;2023-07-02T04:15:00;16.80;99.90
4324;DHT22;2175;51.018;6.994;2023-07-02T04:17:26;16.90;99.90
4324;DHT22;2175;51.018;6.994;2023-07-02T04:19:54;16.90;99.90
4324;DHT22;2175;51.018;6.994;2023-07-02T04:22:19;16.90;99.90
4324;DHT22;2175;51.018;6.994;2023-07-02T04:24:46;16.90;99.90
4324;DHT22;2175;51.018;6.994;2023-07-02T04:27:14;16.90;99.90
4324;DHT22;2175;51.018;6.994;2023-07-02T04:29:43;16.90;99.90
4324;DHT22;2175;51.018;6.994;2023-07-02T04:32:08;16.90;99.90
4324;DHT22;2175;51.018;6.994;2023-07-02T04:34:34;16.90;99.90
4324;DHT22;2175;51.018;6.994;2023-07-02T04:37:04;16.90;99.90
4324;DHT22;2175;51.018;6.994;2023-07-02T04:39:30;17.00;99.90
4324;DHT22;2175;51.018;6.994;2023-07-02T04:41:56;17.00;99.90
4324;DHT22;2175;51.018;6.994;2023-07-02T04:44:21;16.90;99.90
4324;DHT22;2175;51.018;6.994;2023-07-02T04:47:00;17.00;99.90
4324;DHT22;2175;51.018;6.994;2023-07-02T04:49:26;17.00;99.90
4324;DHT22;2175;51.018;6.994;2023-07-02T04:51:52;17.00;99.90
4324;DHT22;2175;51.018;6.994;2023-07-02T04:54:19;17.00;99.90
4324;DHT22;2175;51.018;6.994;2023-07-02T04:56:46;17.00;99.90
4324;DHT22;2175;51.018;6.994;2023-07-02T04:59:12;17.00;99.90
4324;DHT22;2175;51.018;6.994;2023-07-02T05:01:37;17.00;99.90
4324;DHT22;2175;51.018;6.994;2023-07-02T05:04:05;17.00;99.90
4324;DHT22;2175;51.018;6.994;2023-07-02T05:06:31;17.10;99.90
4324;DHT22;2175;51.018;6.994;2023-07-02T05:08:56;17.10;99.90
4324;DHT22;2175;51.018;6.994;2023-07-02T05:11:22;17.10;99.90
4324;DHT22;2175;51.018;6.994;2023-07-02T05:13:48;17.10;99.90
4324;DHT22;2175;51.018;6.994;2023-07-02T05:16:14;17.10;99.90
4324;DHT22;2175;51.018;6.994;2023-07-02T05:18:40;17.10;99.90
4324;DHT22;2175;51.018;6.994;2023-07-02T05:21:06;17.10;99.90
4324;DHT22;2175;51.018;6.994;2023-07-02T05:23:31;17.10;99.90
4324;DHT22;2175;51.018;6.994;2023-07-02T05:25:57;17.10;99.90
4324;DHT22;2175;51.018;6.994;2023-07-02T05:28:23;17.10;99.90
4324;DHT22;2175;51.018;6.994;2023-07-02T05:30:49;17.20;99.90
4324;DHT22;2175;51.018;6.994;2023-07-02T05:33:14;17.30;99.90
4324;DHT22;2175;51.018;6.994;2023-07-02T05:35:40;17.30;99.90
4324;DHT22;2175;51.018;6.994;2023-07-02T05:38:06;17.30;99.90
4324;DHT22;2175;51.018;6.994;2023-07-02T05:40:31;17.30;99.90
4324;DHT22;2175;51.018;6.994;2023-07-02T05:42:57;17.40;99.90
4324;DHT22;2175;51.018;6.994;2023-07-02T05:45:22;17.40;99.90
4324;DHT22;2175;51.018;6.994;2023-07-02T05:47:49;17.40;99.90
4324;DHT22;2175;51.018;6.994;2023-07-02T05:50:15;17.40;99.90
4324;DHT22;2175;51.018;6.994;2023-07-02T05:52:41;17.50;99.90
4324;DHT22;2175;51.018;6.994;2023-07-02T05:55:10;17.50;99.90
4324;DHT22;2175;51.018;6.994;2023-07-02T05:57:37;17.50;99.90
4324;DHT22;2175;51.018;6.994;2023-07-02T06:00:05;17.50;99.90
4324;DHT22;2175;51.018;6.994;2023-07-02T06:02:31;17.50;99.90
4324;DHT22;2175;51.018;6.994;2023-07-02T06:04:57;17.50;99.90
4324;DHT22;2175;51.018;6.994;2023-07-02T06:07:24;17.60;99.90
4324;DHT22;2175;51.018;6.994;2023-07-02T06:09:50;17.60;99.90
4324;DHT22;2175;51.018;6.994;2023-07-02T06:12:15;17.70;99.90
4324;DHT22;2175;51.018;6.994;2023-07-02T06:14:41;17.80;99.90
4324;DHT22;2175;51.018;6.994;2023-07-02T06:17:07;17.80;99.90
4324;DHT22;2175;51.018;6.994;2023-07-02T06:19:33;17.80;99.90
4324;DHT22;2175;51.018;6.994;2023-07-02T06:21:59;17.80;99.90
4324;DHT22;2175;51.018;6.994;2023-07-02T06:24:25;17.90;99.90
4324;DHT22;2175;51.018;6.994;2023-07-02T06:26:51;17.80;99.90
4324;DHT22;2175;51.018;6.994;2023-07-02T06:29:16;17.90;99.90
4324;DHT22;2175;51.018;6.994;2023-07-02T06:31:42;17.90;99.90
4324;DHT22;2175;51.018;6.994;2023-07-02T06:34:08;18.00;99.90
4324;DHT22;2175;51.018;6.994;2023-07-02T06:36:34;18.00;99.90
4324;DHT22;2175;51.018;6.994;2023-07-02T06:39:00;18.10;99.90
4324;DHT22;2175;51.018;6.994;2023-07-02T06:41:25;18.00;99.90
4324;DHT22;2175;51.018;6.994;2023-07-02T06:43:51;18.00;99.90
4324;DHT22;2175;51.018;6.994;2023-07-02T06:46:17;18.00;99.90
4324;DHT22;2175;51.018;6.994;2023-07-02T06:48:42;18.00;99.90
4324;DHT22;2175;51.018;6.994;2023-07-02T06:51:08;18.10;99.90
4324;DHT22;2175;51.018;6.994;2023-07-02T06:53:35;18.10;99.90
4324;DHT22;2175;51.018;6.994;2023-07-02T06:56:01;18.10;99.90
4324;DHT22;2175;51.018;6.994;2023-07-02T06:58:26;18.20;99.90
4324;DHT22;2175;51.018;6.994;2023-07-02T07:00:52;18.20;99.90
4324;DHT22;2175;51.018;6.994;2023-07-02T07:03:18;18.10;99.90
4324;DHT22;2175;51.018;6.994;2023-07-02T07:05:43;18.20;99.90
4324;DHT22;2175;51.018;6.994;2023-07-02T07:08:09;18.40;99.90
4324;DHT22;2175;51.018;6.994;2023-07-02T07:10:34;18.40;99.90
4324;DHT22;2175;51.018;6.994;2023-07-02T07:13:01;18.30;99.90
4324;DHT22;2175;51.018;6.994;2023-07-02T07:15:32;18.30;99.90
4324;DHT22;2175;51.018;6.994;2023-07-02T07:17:57;18.40;99.90
4324;DHT22;2175;51.018;6.994;2023-07-02T07:20:23;18.40;99.90
4324;DHT22;2175;51.018;6.994;2023-07-02T07:22:49;18.50;99.90
4324;DHT22;2175;51.018;6.994;2023-07-02T07:25:14;18.60;99.90
4324;DHT22;2175;51.018;6.994;2023-07-02T07:27:40;18.60;99.90
4324;DHT22;2175;51.018;6.994;2023-07-02T07:30:06;18.60;99.90
4324;DHT22;2175;51.018;6.994;2023-07-02T07:32:32;18.60;99.90
4324;DHT22;2175;51.018;6.994;2023-07-02T07:34:57;18.70;99.90
4324;DHT22;2175;51.018;6.994;2023-07-02T07:37:24;18.70;99.90
4324;DHT22;2175;51.018;6.994;2023-07-02T07:39:50;18.70;99.90
4324;DHT22;2175;51.018;6.994;2023-07-02T07:42:16;18.80;99.90
4324;DHT22;2175;51.018;6.994;2023-07-02T07:44:45;18.80;99.90
4324;DHT22;2175;51.018;6.994;2023-07-02T07:47:11;18.80;99.90
4324;DHT22;2175;51.018;6.994;2023-07-02T07:49:36;18.90;99.90
4324;DHT22;2175;51.018;6.994;2023-07-02T07:52:02;18.80;99.90
4324;DHT22;2175;51.018;6.994;2023-07-02T07:54:29;18.90;99.90
4324;DHT22;2175;51.018;6.994;2023-07-02T07:56:54;18.90;99.90
4324;DHT22;2175;51.018;6.994;2023-07-02T07:59:20;19.00;99.90
4324;DHT22;2175;51.018;6.994;2023-07-02T08:01:46;18.90;99.90
4324;DHT22;2175;51.018;6.994;2023-07-02T08:04:12;19.00;99.90
4324;DHT22;2175;51.018;6.994;2023-07-02T08:06:38;19.00;99.90
4324;DHT22;2175;51.018;6.994;2023-07-02T08:09:03;19.20;99.90
4324;DHT22;2175;51.018;6.994;2023-07-02T08:11:29;19.20;99.90
4324;DHT22;2175;51.018;6.994;2023-07-02T08:13:55;19.30;99.90
4324;DHT22;2175;51.018;6.994;2023-07-02T08:16:20;19.30;99.90
4324;DHT22;2175;51.018;6.994;2023-07-02T08:18:46;19.20;99.90
4324;DHT22;2175;51.018;6.994;2023-07-02T08:21:11;18.90;99.90
4324;DHT22;2175;51.018;6.994;2023-07-02T08:23:37;19.00;99.90
4324;DHT22;2175;51.018;6.994;2023-07-02T08:26:03;19.00;99.90
4324;DHT22;2175;51.018;6.994;2023-07-02T08:28:29;19.20;99.90
4324;DHT22;2175;51.018;6.994;2023-07-02T08:30:55;19.30;99.90
4324;DHT22;2175;51.018;6.994;2023-07-02T08:33:20;19.30;99.90
4324;DHT22;2175;51.018;6.994;2023-07-02T08:35:46;19.50;99.90
4324;DHT22;2175;51.018;6.994;2023-07-02T08:38:11;19.50;99.90
4324;DHT22;2175;51.018;6.994;2023-07-02T08:40:37;19.60;99.90
4324;DHT22;2175;51.018;6.994;2023-07-02T08:43:03;19.80;99.90
4324;DHT22;2175;51.018;6.994;2023-07-02T08:45:29;20.00;99.90
4324;DHT22;2175;51.018;6.994;2023-07-02T08:47:55;20.20;99.90
4324;DHT22;2175;51.018;6.994;2023-07-02T08:50:22;20.40;99.90
4324;DHT22;2175;51.018;6.994;2023-07-02T08:52:48;20.50;99.90
4324;DHT22;2175;51.018;6.994;2023-07-02T08:55:14;20.60;99.90
4324;DHT22;2175;51.018;6.994;2023-07-02T08:57:41;20.40;99.90
4324;DHT22;2175;51.018;6.994;2023-07-02T09:00:15;20.20;99.90
4324;DHT22;2175;51.018;6.994;2023-07-02T09:02:40;20.40;99.90
4324;DHT22;2175;51.018;6.994;2023-07-02T09:05:06;20.70;99.90
4324;DHT22;2175;51.018;6.994;2023-07-02T09:07:42;20.60;99.90
4324;DHT22;2175;51.018;6.994;2023-07-02T09:10:09;20.50;99.90
4324;DHT22;2175;51.018;6.994;2023-07-02T09:12:34;20.20;99.90
4324;DHT22;2175;51.018;6.994;2023-07-02T09:15:05;20.40;99.90
4324;DHT22;2175;51.018;6.994;2023-07-02T09:17:40;20.70;99.90
4324;DHT22;2175;51.018;6.994;2023-07-02T09:20:07;20.80;99.90
4324;DHT22;2175;51.018;6.994;2023-07-02T09:22:34;20.80;99.90
4324;DHT22;2175;51.018;6.994;2023-07-02T09:25:01;20.70;99.90
4324;DHT22;2175;51.018;6.994;2023-07-02T09:27:37;20.50;99.90
4324;DHT22;2175;51.018;6.994;2023-07-02T09:30:15;20.30;99.90
4324;DHT22;2175;51.018;6.994;2023-07-02T09:32:42;20.40;99.90
4324;DHT22;2175;51.018;6.994;2023-07-02T09:35:08;20.50;99.90
4324;DHT22;2175;51.018;6.994;2023-07-02T09:37:33;20.70;99.90
4324;DHT22;2175;51.018;6.994;2023-07-02T09:40:00;20.70;99.90
4324;DHT22;2175;51.018;6.994;2023-07-02T09:42:27;20.60;99.90
4324;DHT22;2175;51.018;6.994;2023-07-02T09:44:55;20.60;99.90
4324;DHT22;2175;51.018;6.994;2023-07-02T09:47:22;20.80;99.90
4324;DHT22;2175;51.018;6.994;2023-07-02T09:50:02;20.80;99.90
4324;DHT22;2175;51.018;6.994;2023-07-02T09:52:29;20.90;99.90
4324;DHT22;2175;51.018;6.994;2023-07-02T09:54:54;21.10;99.90
4324;DHT22;2175;51.018;6.994;2023-07-02T09:57:20;21.00;99.90
4324;DHT22;2175;51.018;6.994;2023-07-02T09:59:46;20.90;99.90
4324;DHT22;2175;51.018;6.994;2023-07-02T10:02:13;20.80;99.90
4324;DHT22;2175;51.018;6.994;2023-07-02T10:04:43;20.50;99.90
4324;DHT22;2175;51.018;6.994;2023-07-02T10:07:10;20.40;99.90
4324;DHT22;2175;51.018;6.994;2023-07-02T10:09:42;20.20;99.90
4324;DHT22;2175;51.018;6.994;2023-07-02T10:14:47;20.10;99.90
4324;DHT22;2175;51.018;6.994;2023-07-02T10:17:33;20.10;99.90
4324;DHT22;2175;51.018;6.994;2023-07-02T10:20:05;20.20;99.90
4324;DHT22;2175;51.018;6.994;2023-07-02T10:22:47;20.50;99.90
4324;DHT22;2175;51.018;6.994;2023-07-02T10:25:26;21.00;99.90
4324;DHT22;2175;51.018;6.994;2023-07-02T10:27:52;21.00;99.90
4324;DHT22;2175;51.018;6.994;2023-07-02T10:30:18;20.90;99.90
4324;DHT22;2175;51.018;6.994;2023-07-02T10:32:43;20.70;99.90
4324;DHT22;2175;51.018;6.994;2023-07-02T10:35:16;20.40;99.90
4324;DHT22;2175;51.018;6.994;2023-07-02T10:37:41;20.30;99.90
4324;DHT22;2175;51.018;6.994;2023-07-02T10:40:08;20.20;99.90
4324;DHT22;2175;51.018;6.994;2023-07-02T10:42:45;20.30;99.90
4324;DHT22;2175;51.018;6.994;2023-07-02T10:45:12;20.40;99.90
4324;DHT22;2175;51.018;6.994;2023-07-02T10:47:41;20.50;99.90
4324;DHT22;2175;51.018;6.994;2023-07-02T10:50:20;20.60;99.90
4324;DHT22;2175;51.018;6.994;2023-07-02T10:52:47;20.80;99.90
4324;DHT22;2175;51.018;6.994;2023-07-02T10:55:17;21.00;99.90
4324;DHT22;2175;51.018;6.994;2023-07-02T10:57:43;21.20;99.90
4324;DHT22;2175;51.018;6.994;2023-07-02T11:00:10;21.70;99.90
4324;DHT22;2175;51.018;6.994;2023-07-02T11:02:36;22.20;99.90
4324;DHT22;2175;51.018;6.994;2023-07-02T11:05:03;22.40;99.90
4324;DHT22;2175;51.018;6.994;2023-07-02T11:07:28;22.20;99.90
4324;DHT22;2175;51.018;6.994;2023-07-02T11:09:54;21.80;99.90
4324;DHT22;2175;51.018;6.994;2023-07-02T11:12:28;21.60;99.90
4324;DHT22;2175;51.018;6.994;2023-07-02T11:14:54;21.30;99.90
4324;DHT22;2175;51.018;6.994;2023-07-02T11:17:25;21.40;99.90
4324;DHT22;2175;51.018;6.994;2023-07-02T11:19:51;21.50;99.90
4324;DHT22;2175;51.018;6.994;2023-07-02T11:22:17;21.60;99.90
4324;DHT22;2175;51.018;6.994;2023-07-02T11:24:42;21.70;99.90
4324;DHT22;2175;51.018;6.994;2023-07-02T11:27:08;22.00;99.90
4324;DHT22;2175;51.018;6.994;2023-07-02T11:29:35;22.20;99.90
4324;DHT22;2175;51.018;6.994;2023-07-02T11:32:05;22.10;99.90
4324;DHT22;2175;51.018;6.994;2023-07-02T11:34:31;21.90;99.90
4324;DHT22;2175;51.018;6.994;2023-07-02T11:36:56;21.70;99.90
4324;DHT22;2175;51.018;6.994;2023-07-02T11:39:22;21.30;99.90
4324;DHT22;2175;51.018;6.994;2023-07-02T11:41:48;21.10;99.90
4324;DHT22;2175;51.018;6.994;2023-07-02T11:44:15;20.80;99.90
4324;DHT22;2175;51.018;6.994;2023-07-02T11:46:41;20.70;99.90
4324;DHT22;2175;51.018;6.994;2023-07-02T11:49:07;20.50;99.90
4324;DHT22;2175;51.018;6.994;2023-07-02T11:51:36;20.40;99.90
4324;DHT22;2175;51.018;6.994;2023-07-02T11:54:05;20.30;99.90
4324;DHT22;2175;51.018;6.994;2023-07-02T11:56:31;20.50;99.90
4324;DHT22;2175;51.018;6.994;2023-07-02T11:58:57;21.00;99.90
4324;DHT22;2175;51.018;6.994;2023-07-02T12:01:23;21.30;99.90
4324;DHT22;2175;51.018;6.994;2023-07-02T12:03:48;21.50;99.90
4324;DHT22;2175;51.018;6.994;2023-07-02T12:06:14;21.50;99.90
4324;DHT22;2175;51.018;6.994;2023-07-02T12:08:40;21.60;99.90
4324;DHT22;2175;51.018;6.994;2023-07-02T12:11:06;21.60;99.90
4324;DHT22;2175;51.018;6.994;2023-07-02T12:13:31;21.70;99.90
4324;DHT22;2175;51.018;6.994;2023-07-02T12:15:57;21.80;99.90
4324;DHT22;2175;51.018;6.994;2023-07-02T12:18:22;21.70;99.90
4324;DHT22;2175;51.018;6.994;2023-07-02T12:20:48;21.60;99.90
4324;DHT22;2175;51.018;6.994;2023-07-02T12:23:14;21.60;99.90
4324;DHT22;2175;51.018;6.994;2023-07-02T12:25:39;21.60;99.90
4324;DHT22;2175;51.018;6.994;2023-07-02T12:28:05;21.60;99.90
4324;DHT22;2175;51.018;6.994;2023-07-02T12:30:31;21.60;99.90
4324;DHT22;2175;51.018;6.994;2023-07-02T12:32:57;21.70;99.90
4324;DHT22;2175;51.018;6.994;2023-07-02T12:35:23;21.90;99.90
4324;DHT22;2175;51.018;6.994;2023-07-02T12:37:51;22.00;99.90
4324;DHT22;2175;51.018;6.994;2023-07-02T12:40:17;21.90;99.90
4324;DHT22;2175;51.018;6.994;2023-07-02T12:42:44;21.80;99.90
4324;DHT22;2175;51.018;6.994;2023-07-02T12:45:12;21.80;99.90
4324;DHT22;2175;51.018;6.994;2023-07-02T12:47:39;21.80;99.90
4324;DHT22;2175;51.018;6.994;2023-07-02T12:50:05;21.90;99.90
4324;DHT22;2175;51.018;6.994;2023-07-02T12:52:32;21.80;99.90
4324;DHT22;2175;51.018;6.994;2023-07-02T12:54:58;21.90;99.90
4324;DHT22;2175;51.018;6.994;2023-07-02T12:57:23;22.00;99.90
4324;DHT22;2175;51.018;6.994;2023-07-02T12:59:49;21.80;99.90
4324;DHT22;2175;51.018;6.994;2023-07-02T13:02:15;21.90;99.90
4324;DHT22;2175;51.018;6.994;2023-07-02T13:04:40;22.00;99.90
4324;DHT22;2175;51.018;6.994;2023-07-02T13:07:06;22.30;99.90
4324;DHT22;2175;51.018;6.994;2023-07-02T13:09:32;22.40;99.90
4324;DHT22;2175;51.018;6.994;2023-07-02T13:11:57;22.40;99.90
4324;DHT22;2175;51.018;6.994;2023-07-02T13:14:23;22.30;99.90
4324;DHT22;2175;51.018;6.994;2023-07-02T13:16:48;22.30;99.90
4324;DHT22;2175;51.018;6.994;2023-07-02T13:19:14;22.40;99.90
4324;DHT22;2175;51.018;6.994;2023-07-02T13:21:41;22.50;99.90
4324;DHT22;2175;51.018;6.994;2023-07-02T13:24:06;22.50;99.90
4324;DHT22;2175;51.018;6.994;2023-07-02T13:26:32;22.50;99.90
4324;DHT22;2175;51.018;6.994;2023-07-02T13:28:58;22.50;99.90
4324;DHT22;2175;51.018;6.994;2023-07-02T13:31:23;22.60;99.90
4324;DHT22;2175;51.018;6.994;2023-07-02T13:33:49;22.80;99.90
4324;DHT22;2175;51.018;6.994;2023-07-02T13:36:16;23.00;99.90
4324;DHT22;2175;51.018;6.994;2023-07-02T13:38:41;23.10;99.90
4324;DHT22;2175;51.018;6.994;2023-07-02T13:41:07;23.10;99.90
4324;DHT22;2175;51.018;6.994;2023-07-02T13:43:34;23.00;99.90
4324;DHT22;2175;51.018;6.994;2023-07-02T13:46:00;22.90;99.90
4324;DHT22;2175;51.018;6.994;2023-07-02T13:48:25;22.70;99.90
4324;DHT22;2175;51.018;6.994;2023-07-02T13:50:51;22.70;99.90
4324;DHT22;2175;51.018;6.994;2023-07-02T13:53:17;22.80;99.90
4324;DHT22;2175;51.018;6.994;2023-07-02T13:55:42;22.90;99.90
4324;DHT22;2175;51.018;6.994;2023-07-02T13:58:08;22.80;99.90
4324;DHT22;2175;51.018;6.994;2023-07-02T14:00:33;22.70;99.90
4324;DHT22;2175;51.018;6.994;2023-07-02T14:02:59;22.80;99.90
4324;DHT22;2175;51.018;6.994;2023-07-02T14:05:25;22.90;99.90
4324;DHT22;2175;51.018;6.994;2023-07-02T14:07:50;22.90;99.90
4324;DHT22;2175;51.018;6.994;2023-07-02T14:10:17;22.80;99.90
4324;DHT22;2175;51.018;6.994;2023-07-02T14:12:42;22.90;99.90
4324;DHT22;2175;51.018;6.994;2023-07-02T14:15:09;23.00;99.90
4324;DHT22;2175;51.018;6.994;2023-07-02T14:17:35;22.90;99.90
4324;DHT22;2175;51.018;6.994;2023-07-02T14:20:02;22.80;99.90
4324;DHT22;2175;51.018;6.994;2023-07-02T14:22:28;22.80;99.90
4324;DHT22;2175;51.018;6.994;2023-07-02T14:24:53;22.90;99.90
4324;DHT22;2175;51.018;6.994;2023-07-02T14:27:19;22.80;99.90
4324;DHT22;2175;51.018;6.994;2023-07-02T14:29:44;22.80;99.90
4324;DHT22;2175;51.018;6.994;2023-07-02T14:32:13;22.80;99.90
4324;DHT22;2175;51.018;6.994;2023-07-02T14:34:39;22.80;99.90
4324;DHT22;2175;51.018;6.994;2023-07-02T14:37:05;22.80;99.90
4324;DHT22;2175;51.018;6.994;2023-07-02T14:39:31;22.80;99.90
4324;DHT22;2175;51.018;6.994;2023-07-02T14:41:57;22.70;99.90
4324;DHT22;2175;51.018;6.994;2023-07-02T14:44:22;22.70;99.90
4324;DHT22;2175;51.018;6.994;2023-07-02T14:46:48;22.50;99.90
4324;DHT22;2175;51.018;6.994;2023-07-02T14:49:14;22.40;99.90
4324;DHT22;2175;51.018;6.994;2023-07-02T14:51:40;22.30;99.90
4324;DHT22;2175;51.018;6.994;2023-07-02T14:54:06;22.50;99.90
4324;DHT22;2175;51.018;6.994;2023-07-02T14:56:33;22.70;99.90
4324;DHT22;2175;51.018;6.994;2023-07-02T14:58:58;22.80;99.90
4324;DHT22;2175;51.018;6.994;2023-07-02T15:01:24;23.00;99.90
4324;DHT22;2175;51.018;6.994;2023-07-02T15:03:50;23.00;99.90
4324;DHT22;2175;51.018;6.994;2023-07-02T15:06:17;22.80;99.90
4324;DHT22;2175;51.018;6.994;2023-07-02T15:08:44;22.70;99.90
4324;DHT22;2175;51.018;6.994;2023-07-02T15:11:11;22.50;99.90
4324;DHT22;2175;51.018;6.994;2023-07-02T15:13:37;22.50;99.90
4324;DHT22;2175;51.018;6.994;2023-07-02T15:16:04;22.40;99.90
4324;DHT22;2175;51.018;6.994;2023-07-02T15:18:29;22.40;99.90
4324;DHT22;2175;51.018;6.994;2023-07-02T15:20:55;22.40;99.90
4324;DHT22;2175;51.018;6.994;2023-07-02T15:23:23;22.50;99.90
4324;DHT22;2175;51.018;6.994;2023-07-02T15:25:58;22.40;99.90
4324;DHT22;2175;51.018;6.994;2023-07-02T15:28:24;22.40;99.90
4324;DHT22;2175;51.018;6.994;2023-07-02T15:30:58;22.30;99.90
4324;DHT22;2175;51.018;6.994;2023-07-02T15:33:25;22.40;99.90
4324;DHT22;2175;51.018;6.994;2023-07-02T15:35:51;22.50;99.90
4324;DHT22;2175;51.018;6.994;2023-07-02T15:38:16;22.50;99.90
4324;DHT22;2175;51.018;6.994;2023-07-02T15:40:44;22.50;99.90
4324;DHT22;2175;51.018;6.994;2023-07-02T15:43:09;22.60;99.90
4324;DHT22;2175;51.018;6.994;2023-07-02T15:45:36;22.60;99.90
4324;DHT22;2175;51.018;6.994;2023-07-02T15:48:02;22.70;99.90
4324;DHT22;2175;51.018;6.994;2023-07-02T15:50:27;22.70;99.90
4324;DHT22;2175;51.018;6.994;2023-07-02T15:52:53;22.70;99.90
4324;DHT22;2175;51.018;6.994;2023-07-02T15:55:20;22.50;99.90
4324;DHT22;2175;51.018;6.994;2023-07-02T15:57:46;22.40;99.90
4324;DHT22;2175;51.018;6.994;2023-07-02T16:00:13;22.40;99.90